createdAt,value
2023-03-10T00:00:41.104Z,25.09
2023-03-10T00:03:09.009Z,25.09
2023-03-10T00:05:39.987Z,25.10
2023-03-10T00:08:08.526Z,25.08
2023-03-10T00:10:37.033Z,25.06
2023-03-10T00:13:05.165Z,25.00
2023-03-10T00:15:33.210Z,25.04
2023-03-10T00:18:01.242Z,24.92
2023-03-10T00:20:29.207Z,25.03
2023-03-10T00:22:58.597Z,25.02
2023-03-10T00:25:26.633Z,25.00
2023-03-10T00:27:54.654Z,24.99
2023-03-10T00:30:23.944Z,25.01
2023-03-10T00:32:51.953Z,24.99
2023-03-10T00:35:19.877Z,24.99
2023-03-10T00:37:47.941Z,24.98
2023-03-10T00:40:19.185Z,24.97
2023-03-10T00:42:47.254Z,24.96
2023-03-10T00:45:15.196Z,24.94
2023-03-10T00:47:43.293Z,24.95
2023-03-10T00:50:12.768Z,24.92
2023-03-10T00:52:40.794Z,24.93
2023-03-10T00:55:09.412Z,24.92
2023-03-10T00:57:39.248Z,24.90
2023-03-10T01:00:08.861Z,24.92
2023-03-10T01:02:36.859Z,24.88
2023-03-10T01:05:05.241Z,24.90
2023-03-10T01:07:33.999Z,24.90
2023-03-10T01:10:01.926Z,24.91
2023-03-10T01:12:29.946Z,24.91
2023-03-10T01:14:59.294Z,24.89
2023-03-10T01:17:27.357Z,24.61
2023-03-10T01:19:55.325Z,24.91
2023-03-10T01:22:23.254Z,24.90
2023-03-10T01:24:52.262Z,24.90
2023-03-10T01:27:20.382Z,24.91
2023-03-10T01:29:48.280Z,24.91
2023-03-10T01:32:18.332Z,24.91
2023-03-10T01:34:46.456Z,24.88
2023-03-10T01:37:14.373Z,24.87
2023-03-10T01:39:43.203Z,24.91
2023-03-10T01:42:11.164Z,24.92
2023-03-10T01:44:39.395Z,24.94
2023-03-10T01:47:07.405Z,24.95
2023-03-10T01:49:41.105Z,24.98
2023-03-10T01:52:13.762Z,24.99
2023-03-10T01:54:49.505Z,25.00
2023-03-10T01:57:20.298Z,24.97
2023-03-10T01:59:48.710Z,25.00
2023-03-10T02:02:17.161Z,25.01
2023-03-10T02:04:49.569Z,25.01
2023-03-10T02:07:25.781Z,25.01
2023-03-10T02:09:55.488Z,24.99
2023-03-10T02:12:23.454Z,25.02
2023-03-10T02:14:53.727Z,25.02
2023-03-10T02:17:24.346Z,25.03
2023-03-10T02:20:06.858Z,25.03
2023-03-10T02:22:35.297Z,25.03
2023-03-10T02:25:15.402Z,24.95
2023-03-10T02:27:45.197Z,25.06
2023-03-10T02:30:17.546Z,25.07
2023-03-10T02:32:48.738Z,25.07
2023-03-10T02:35:17.300Z,25.07
2023-03-10T02:37:54.123Z,25.07
2023-03-10T02:40:34.767Z,25.08
2023-03-10T02:43:19.068Z,25.02
2023-03-10T02:45:51.650Z,25.06
2023-03-10T02:48:27.897Z,24.94
2023-03-10T02:50:57.703Z,25.07
2023-03-10T02:53:28.472Z,25.09
2023-03-10T02:55:57.527Z,25.09
2023-03-10T02:58:29.946Z,25.10
2023-03-10T03:00:58.370Z,24.99
2023-03-10T03:03:26.788Z,25.09
2023-03-10T03:05:55.043Z,25.07
2023-03-10T03:08:23.097Z,25.08
2023-03-10T03:10:52.824Z,25.08
2023-03-10T03:13:21.500Z,25.05
2023-03-10T03:15:51.520Z,25.03
2023-03-10T03:18:19.752Z,25.07
2023-03-10T03:20:47.960Z,25.07
2023-03-10T03:23:16.257Z,25.07
2023-03-10T03:25:44.592Z,25.07
2023-03-10T03:28:15.912Z,25.06
2023-03-10T03:30:46.851Z,25.06
2023-03-10T03:33:16.822Z,25.03
2023-03-10T03:35:46.237Z,25.05
2023-03-10T03:38:16.563Z,25.04
2023-03-10T03:40:45.540Z,25.01
2023-03-10T03:43:15.837Z,25.05
2023-03-10T03:45:45.031Z,25.04
2023-03-10T03:48:14.819Z,24.94
2023-03-10T03:50:45.051Z,25.06
2023-03-10T03:53:22.613Z,24.96
2023-03-10T03:55:51.288Z,25.04
2023-03-10T03:58:21.786Z,25.04
2023-03-10T04:00:51.885Z,25.05
2023-03-10T04:03:20.474Z,25.06
2023-03-10T04:05:50.800Z,25.06
2023-03-10T04:08:20.856Z,25.04
2023-03-10T04:10:54.546Z,25.06
2023-03-10T04:13:25.992Z,25.05
2023-03-10T04:15:56.700Z,25.07
2023-03-10T04:18:25.569Z,25.05
2023-03-10T04:20:54.978Z,25.05
2023-03-10T04:23:23.019Z,25.07
2023-03-10T04:25:51.191Z,25.05
2023-03-10T04:28:19.741Z,25.05
2023-03-10T04:30:49.757Z,25.05
2023-03-10T04:33:20.349Z,25.05
2023-03-10T04:35:51.439Z,25.05
2023-03-10T04:38:24.073Z,25.04
2023-03-10T04:40:56.762Z,25.03
2023-03-10T04:43:28.660Z,25.02
2023-03-10T04:45:57.784Z,25.01
2023-03-10T04:48:26.289Z,24.94
2023-03-10T04:50:57.705Z,25.02
2023-03-10T04:53:28.853Z,24.82
2023-03-10T04:55:57.608Z,25.02
2023-03-10T04:58:25.700Z,25.02
2023-03-10T05:01:02.726Z,25.03
2023-03-10T05:03:35.266Z,25.02
2023-03-10T05:06:03.508Z,25.01
2023-03-10T05:08:33.052Z,25.03
2023-03-10T05:11:01.201Z,25.02
2023-03-10T05:13:31.740Z,25.02
2023-03-10T05:16:00.569Z,24.91
2023-03-10T05:18:28.606Z,25.03
2023-03-10T05:20:58.726Z,25.05
2023-03-10T05:23:27.989Z,25.04
2023-03-10T05:25:57.890Z,25.00
2023-03-10T05:28:27.556Z,25.02
2023-03-10T05:30:55.729Z,25.02
2023-03-10T05:33:23.796Z,25.02
2023-03-10T05:35:52.643Z,25.02
2023-03-10T05:38:20.722Z,25.01
2023-03-10T05:40:48.920Z,25.03
2023-03-10T05:43:18.392Z,25.03
2023-03-10T05:45:46.942Z,25.03
2023-03-10T05:48:14.864Z,25.02
2023-03-10T05:50:42.902Z,25.02
2023-03-10T05:53:10.910Z,24.99
2023-03-10T05:55:39.148Z,24.99
2023-03-10T05:58:07.205Z,25.00
2023-03-10T06:00:36.692Z,25.00
2023-03-10T06:03:04.819Z,24.99
2023-03-10T06:05:32.917Z,24.99
2023-03-10T06:08:01.095Z,24.98
2023-03-10T06:10:29.223Z,24.99
2023-03-10T06:12:57.493Z,24.99
2023-03-10T06:15:25.613Z,24.99
2023-03-10T06:17:54.879Z,24.99
2023-03-10T06:20:22.852Z,24.99
2023-03-10T06:22:52.348Z,25.00
2023-03-10T06:25:20.655Z,25.02
2023-03-10T06:27:49.044Z,24.83
2023-03-10T06:30:17.516Z,25.02
2023-03-10T06:32:45.658Z,25.02
2023-03-10T06:35:16.551Z,25.03
2023-03-10T06:37:44.610Z,24.96
2023-03-10T06:40:15.093Z,25.03
2023-03-10T06:42:43.690Z,24.95
2023-03-10T06:45:16.077Z,25.03
2023-03-10T06:47:44.097Z,25.02
2023-03-10T06:50:15.288Z,25.04
2023-03-10T06:52:43.304Z,25.00
2023-03-10T06:55:13.754Z,25.04
2023-03-10T06:57:42.162Z,25.01
2023-03-10T07:00:15.649Z,25.04
2023-03-10T07:02:43.762Z,25.03
2023-03-10T07:05:13.892Z,25.04
2023-03-10T07:07:43.321Z,25.05
2023-03-10T07:10:12.578Z,25.04
2023-03-10T07:12:40.488Z,24.90
2023-03-10T07:15:09.836Z,25.03
2023-03-10T07:17:37.824Z,25.04
2023-03-10T07:20:06.844Z,25.03
2023-03-10T07:22:34.720Z,25.04
2023-03-10T07:25:05.006Z,25.05
2023-03-10T07:27:32.993Z,25.04
2023-03-10T07:30:01.119Z,25.05
2023-03-10T07:32:29.174Z,25.05
2023-03-10T07:34:57.083Z,25.05
2023-03-10T07:37:25.319Z,25.03
2023-03-10T07:39:55.038Z,25.05
2023-03-10T07:42:24.478Z,25.05
2023-03-10T07:44:52.474Z,25.03
2023-03-10T07:47:20.489Z,25.05
2023-03-10T07:49:48.672Z,25.06
2023-03-10T07:52:18.195Z,25.08
2023-03-10T07:54:46.973Z,25.06
2023-03-10T07:57:16.268Z,25.10
2023-03-10T07:59:45.755Z,25.11
2023-03-10T08:02:14.947Z,25.11
2023-03-10T08:04:43.504Z,25.11
2023-03-10T08:07:11.642Z,25.13
2023-03-10T08:09:41.453Z,25.15
2023-03-10T08:12:10.124Z,25.18
2023-03-10T08:14:38.105Z,25.21
2023-03-10T08:17:07.490Z,25.22
2023-03-10T08:19:35.415Z,25.25
2023-03-10T08:22:03.343Z,25.29
2023-03-10T08:24:31.320Z,25.31
2023-03-10T08:26:59.465Z,25.33
2023-03-10T08:29:27.433Z,25.33
2023-03-10T08:31:55.530Z,25.35
2023-03-10T08:34:25.286Z,25.37
2023-03-10T08:36:53.393Z,25.39
2023-03-10T08:39:21.566Z,25.43
2023-03-10T08:41:50.000Z,25.45
2023-03-10T08:44:18.638Z,25.47
2023-03-10T08:46:48.906Z,25.53
2023-03-10T08:49:19.475Z,25.57
2023-03-10T08:51:49.301Z,25.60
2023-03-10T08:54:19.322Z,25.62
2023-03-10T08:56:47.525Z,25.55
2023-03-10T08:59:15.662Z,25.64
2023-03-10T09:01:43.725Z,25.65
2023-03-10T09:04:12.164Z,25.66
2023-03-10T09:06:40.771Z,25.65
2023-03-10T09:09:11.632Z,25.68
2023-03-10T09:11:41.491Z,25.67
2023-03-10T09:14:11.103Z,25.69
2023-03-10T09:16:40.739Z,25.72
2023-03-10T09:19:08.911Z,25.74
2023-03-10T09:21:37.112Z,25.80
2023-03-10T09:24:05.446Z,25.82
2023-03-10T09:26:35.480Z,25.86
2023-03-10T09:29:04.491Z,25.91
2023-03-10T09:31:34.665Z,25.95
2023-03-10T09:34:03.104Z,25.96
2023-03-10T09:36:31.103Z,26.00
2023-03-10T09:39:00.090Z,26.04
2023-03-10T09:41:46.262Z,26.09
2023-03-10T09:44:25.863Z,26.13
2023-03-10T09:47:14.304Z,26.18
2023-03-10T09:49:51.498Z,26.20
2023-03-10T09:52:25.236Z,26.26
2023-03-10T09:54:59.825Z,26.31
2023-03-10T09:57:31.545Z,26.35
2023-03-10T10:00:05.390Z,26.38
2023-03-10T10:02:37.454Z,26.41
2023-03-10T10:05:16.827Z,26.43
2023-03-10T10:07:50.219Z,26.46
2023-03-10T10:10:21.089Z,26.49
2023-03-10T10:12:53.917Z,26.52
2023-03-10T10:15:24.384Z,26.42
2023-03-10T10:18:16.111Z,26.56
2023-03-10T10:20:50.656Z,26.54
2023-03-10T10:23:22.522Z,26.56
2023-03-10T10:25:50.629Z,26.57
2023-03-10T10:28:30.229Z,26.60
2023-03-10T10:31:12.522Z,26.63
2023-03-10T10:33:55.322Z,26.64
2023-03-10T10:36:25.914Z,26.65
2023-03-10T10:38:56.279Z,26.68
2023-03-10T10:41:28.218Z,26.69
2023-03-10T10:44:00.487Z,26.71
2023-03-10T10:46:30.849Z,26.72
2023-03-10T10:49:09.063Z,26.75
2023-03-10T10:51:38.670Z,26.76
2023-03-10T10:54:23.937Z,26.60
2023-03-10T10:56:56.493Z,26.76
2023-03-10T10:59:30.567Z,26.76
2023-03-10T11:02:00.051Z,26.77
2023-03-10T11:04:29.933Z,26.76
2023-03-10T11:07:17.246Z,26.74
2023-03-10T11:09:45.411Z,26.71
2023-03-10T11:12:22.132Z,26.71
2023-03-10T11:15:07.478Z,26.67
2023-03-10T11:17:43.001Z,26.62
2023-03-10T11:20:23.216Z,26.60
2023-03-10T11:22:57.951Z,26.43
2023-03-10T11:25:31.491Z,26.51
2023-03-10T11:28:13.034Z,26.48
2023-03-10T11:30:50.834Z,26.47
2023-03-10T11:33:27.307Z,26.42
2023-03-10T11:36:01.239Z,26.38
2023-03-10T11:38:37.591Z,26.35
2023-03-10T11:41:09.425Z,26.32
2023-03-10T11:43:50.955Z,26.30
2023-03-10T11:46:26.351Z,26.27
2023-03-10T11:49:08.320Z,26.26
2023-03-10T11:51:39.875Z,26.26
2023-03-10T11:54:15.609Z,26.27
2023-03-10T11:56:43.952Z,26.25
2023-03-10T11:59:16.894Z,26.26
2023-03-10T12:01:51.784Z,26.26
2023-03-10T12:04:24.520Z,26.26
2023-03-10T12:06:58.653Z,26.27
2023-03-10T12:09:42.361Z,26.30
2023-03-10T12:12:16.679Z,26.31
2023-03-10T12:14:46.089Z,26.33
2023-03-10T12:17:17.661Z,26.35
2023-03-10T12:20:25.369Z,26.34
2023-03-10T12:22:54.345Z,26.33
2023-03-10T12:25:44.421Z,26.34
2023-03-10T12:28:14.452Z,26.31
2023-03-10T12:30:46.878Z,26.32
2023-03-10T12:33:44.118Z,26.36
2023-03-10T12:36:15.348Z,26.42
2023-03-10T12:38:47.340Z,26.46
2023-03-10T12:41:42.293Z,26.50
2023-03-10T12:44:43.388Z,26.53
2023-03-10T12:47:31.905Z,26.58
2023-03-10T12:50:06.336Z,26.59
2023-03-10T12:52:48.093Z,26.64
2023-03-10T12:55:19.869Z,26.54
2023-03-10T12:58:10.865Z,26.68
2023-03-10T13:00:49.030Z,26.64
2023-03-10T13:03:27.287Z,26.62
2023-03-10T13:06:03.140Z,26.60
2023-03-10T13:08:37.819Z,26.59
2023-03-10T13:11:07.529Z,26.54
2023-03-10T13:13:38.315Z,26.52
2023-03-10T13:16:08.413Z,26.50
2023-03-10T13:18:36.791Z,26.46
2023-03-10T13:21:06.424Z,26.45
2023-03-10T13:23:36.168Z,26.43
2023-03-10T13:26:07.223Z,26.42
2023-03-10T13:28:36.532Z,26.38
2023-03-10T13:31:19.416Z,26.38
2023-03-10T13:33:53.772Z,26.40
2023-03-10T13:36:32.828Z,26.47
2023-03-10T13:39:02.695Z,26.50
2023-03-10T13:41:37.143Z,26.54
2023-03-10T13:44:05.270Z,26.34
2023-03-10T13:46:34.861Z,26.53
2023-03-10T13:49:06.941Z,26.49
2023-03-10T13:51:37.667Z,26.45
2023-03-10T13:54:18.657Z,26.42
2023-03-10T13:56:48.229Z,26.39
2023-03-10T13:59:18.174Z,26.35
2023-03-10T14:01:49.898Z,26.33
2023-03-10T14:04:20.169Z,26.30
2023-03-10T14:07:08.578Z,26.29
2023-03-10T14:09:36.829Z,26.16
2023-03-10T14:12:05.218Z,26.26
2023-03-10T14:14:35.631Z,26.25
2023-03-10T14:17:05.611Z,26.23
2023-03-10T14:19:48.827Z,26.20
2023-03-10T14:22:35.703Z,26.19
2023-03-10T14:25:12.011Z,26.17
2023-03-10T14:27:42.516Z,26.16
2023-03-10T14:30:20.973Z,26.15
2023-03-10T14:32:49.194Z,26.13
2023-03-10T14:35:20.231Z,26.14
2023-03-10T14:37:49.796Z,25.99
2023-03-10T14:40:18.487Z,26.12
2023-03-10T14:42:48.483Z,26.11
2023-03-10T14:45:27.706Z,26.11
2023-03-10T14:47:58.024Z,26.08
2023-03-10T14:50:27.659Z,26.11
2023-03-10T14:52:57.305Z,26.11
2023-03-10T14:55:25.782Z,26.15
2023-03-10T14:57:59.651Z,26.16
2023-03-10T15:00:28.124Z,26.17
2023-03-10T15:02:56.136Z,26.18
2023-03-10T15:05:31.889Z,26.19
2023-03-10T15:08:07.562Z,26.19
2023-03-10T15:10:38.590Z,26.20
2023-03-10T15:13:06.853Z,26.20
2023-03-10T15:15:39.587Z,26.20
2023-03-10T15:18:08.112Z,26.19
2023-03-10T15:20:36.059Z,26.19
2023-03-10T15:23:03.982Z,26.19
2023-03-10T15:25:33.524Z,26.19
2023-03-10T15:28:01.500Z,26.19
2023-03-10T15:30:32.144Z,26.18
2023-03-10T15:33:00.249Z,26.13
2023-03-10T15:35:29.227Z,26.13
2023-03-10T15:37:58.026Z,26.10
2023-03-10T15:40:27.835Z,25.53
2023-03-10T15:42:57.806Z,26.03
2023-03-10T15:45:26.748Z,25.99
2023-03-10T15:47:54.694Z,25.94
2023-03-10T15:50:23.219Z,25.90
2023-03-10T15:52:53.033Z,25.80
2023-03-10T15:55:21.520Z,25.81
2023-03-10T15:57:50.226Z,25.77
2023-03-10T16:00:22.242Z,25.75
2023-03-10T16:02:51.217Z,25.71
2023-03-10T16:05:19.901Z,25.68
2023-03-10T16:07:47.970Z,25.66
2023-03-10T16:10:17.743Z,25.66
2023-03-10T16:12:45.937Z,25.62
2023-03-10T16:15:16.943Z,25.53
2023-03-10T16:17:47.246Z,25.59
2023-03-10T16:20:17.015Z,25.55
2023-03-10T16:22:44.987Z,25.54
2023-03-10T16:25:15.299Z,25.53
2023-03-10T16:27:43.359Z,25.50
2023-03-10T16:30:12.869Z,25.50
2023-03-10T16:32:40.879Z,25.49
2023-03-10T16:35:11.000Z,25.48
2023-03-10T16:37:39.012Z,25.45
2023-03-10T16:40:08.677Z,25.43
2023-03-10T16:42:36.805Z,25.39
2023-03-10T16:45:05.946Z,25.37
2023-03-10T16:47:34.431Z,24.85
2023-03-10T16:50:02.354Z,25.11
2023-03-10T16:52:31.670Z,25.27
2023-03-10T16:55:01.387Z,25.23
2023-03-10T16:57:29.425Z,25.21
2023-03-10T16:59:57.334Z,25.17
2023-03-10T17:02:25.285Z,25.16
2023-03-10T17:04:54.060Z,25.13
2023-03-10T17:07:22.038Z,25.07
2023-03-10T17:09:51.347Z,25.05
2023-03-10T17:12:19.405Z,25.02
2023-03-10T17:14:47.397Z,24.99
2023-03-10T17:17:15.553Z,24.98
2023-03-10T17:19:43.691Z,24.96
2023-03-10T17:22:11.712Z,24.95
2023-03-10T17:24:39.647Z,24.95
2023-03-10T17:27:08.960Z,24.94
2023-03-10T17:29:36.912Z,24.90
2023-03-10T17:32:05.090Z,24.89
2023-03-10T17:34:33.005Z,24.89
2023-03-10T17:37:01.231Z,24.87
2023-03-10T17:39:29.300Z,24.86
2023-03-10T17:41:57.438Z,24.86
2023-03-10T17:44:27.214Z,24.85
2023-03-10T17:46:56.161Z,24.84
2023-03-10T17:49:24.056Z,24.81
2023-03-10T17:51:52.093Z,24.81
2023-03-10T17:54:21.988Z,24.81
2023-03-10T17:56:51.056Z,24.78
2023-03-10T17:59:19.205Z,24.78
2023-03-10T18:01:49.582Z,24.77
2023-03-10T18:04:17.915Z,24.75
2023-03-10T18:06:45.963Z,24.75
2023-03-10T18:09:15.490Z,24.74
2023-03-10T18:11:43.657Z,24.71
2023-03-10T18:14:11.602Z,24.69
2023-03-10T18:16:41.005Z,24.67
2023-03-10T18:19:11.588Z,24.66
2023-03-10T18:21:39.932Z,24.65
2023-03-10T18:24:08.798Z,24.63
2023-03-10T18:26:38.052Z,24.63
2023-03-10T18:29:06.062Z,24.62
2023-03-10T18:31:35.205Z,24.62
2023-03-10T18:34:04.508Z,24.61
2023-03-10T18:36:34.265Z,24.60
2023-03-10T18:39:03.964Z,24.60
2023-03-10T18:41:32.748Z,24.59
2023-03-10T18:44:01.078Z,24.58
2023-03-10T18:46:29.316Z,24.44
2023-03-10T18:48:57.499Z,24.57
2023-03-10T18:51:26.508Z,24.57
2023-03-10T18:53:56.577Z,24.57
2023-03-10T18:56:25.994Z,24.57
2023-03-10T18:58:53.992Z,24.58
2023-03-10T19:01:23.009Z,24.64
2023-03-10T19:03:51.044Z,24.67
2023-03-10T19:06:19.200Z,24.52
2023-03-10T19:08:47.295Z,24.72
2023-03-10T19:11:17.173Z,24.75
2023-03-10T19:13:45.083Z,24.77
2023-03-10T19:16:13.480Z,24.78
2023-03-10T19:18:41.617Z,24.80
2023-03-10T19:21:12.941Z,24.82
2023-03-10T19:23:41.554Z,24.84
2023-03-10T19:26:10.036Z,24.79
2023-03-10T19:28:39.362Z,24.89
2023-03-10T19:31:11.686Z,24.90
2023-03-10T19:33:39.879Z,24.89
2023-03-10T19:36:12.006Z,24.85
2023-03-10T19:38:40.849Z,24.52
2023-03-10T19:41:13.526Z,24.91
2023-03-10T19:43:43.766Z,24.90
2023-03-10T19:46:13.642Z,24.91
2023-03-10T19:48:42.099Z,24.82
2023-03-10T19:51:10.695Z,24.67
2023-03-10T19:53:38.714Z,24.89
2023-03-10T19:56:08.582Z,24.89
2023-03-10T19:58:38.091Z,24.89
2023-03-10T20:01:13.421Z,24.90
2023-03-10T20:03:41.596Z,24.89
2023-03-10T20:06:09.822Z,24.89
2023-03-10T20:08:38.080Z,24.88
2023-03-10T20:11:06.245Z,24.87
2023-03-10T20:13:35.694Z,24.86
2023-03-10T20:16:04.232Z,24.83
2023-03-10T20:18:33.577Z,24.83
2023-03-10T20:21:03.036Z,24.58
2023-03-10T20:23:30.950Z,24.79
2023-03-10T20:26:02.194Z,24.78
2023-03-10T20:28:30.668Z,24.76
2023-03-10T20:30:58.537Z,24.76
2023-03-10T20:33:26.832Z,24.75
2023-03-10T20:35:56.892Z,24.72
2023-03-10T20:38:24.895Z,24.76
2023-03-10T20:40:52.812Z,24.77
2023-03-10T20:43:21.001Z,24.79
2023-03-10T20:45:52.419Z,24.81
2023-03-10T20:48:20.430Z,24.81
2023-03-10T20:50:56.579Z,24.73
2023-03-10T20:53:24.573Z,24.83
2023-03-10T20:55:52.972Z,24.85
2023-03-10T20:58:22.183Z,24.85
2023-03-10T21:00:50.149Z,24.88
2023-03-10T21:03:18.182Z,24.88
2023-03-10T21:05:46.084Z,24.91
2023-03-10T21:08:15.489Z,24.92
2023-03-10T21:10:44.593Z,24.93
2023-03-10T21:13:12.656Z,24.79
2023-03-10T21:15:40.816Z,24.86
2023-03-10T21:18:08.859Z,24.96
2023-03-10T21:20:36.798Z,24.97
2023-03-10T21:23:04.769Z,24.84
2023-03-10T21:25:34.153Z,24.98
2023-03-10T21:28:02.221Z,24.97
2023-03-10T21:30:33.546Z,24.97
2023-03-10T21:33:01.637Z,24.96
2023-03-10T21:35:34.128Z,24.97
2023-03-10T21:38:02.127Z,24.96
2023-03-10T21:40:30.265Z,24.96
2023-03-10T21:43:02.482Z,24.99
2023-03-10T21:45:33.374Z,25.00
2023-03-10T21:48:03.062Z,25.01
2023-03-10T21:50:31.123Z,25.04
2023-03-10T21:52:59.448Z,25.04
2023-03-10T21:55:28.698Z,25.08
2023-03-10T21:57:56.649Z,25.09
2023-03-10T22:00:26.856Z,25.12
2023-03-10T22:02:54.941Z,25.12
2023-03-10T22:05:22.898Z,25.13
2023-03-10T22:07:51.494Z,25.15
2023-03-10T22:10:19.712Z,25.14
2023-03-10T22:12:48.033Z,25.10
2023-03-10T22:15:19.624Z,25.15
2023-03-10T22:17:49.265Z,25.16
2023-03-10T22:20:20.487Z,25.16
2023-03-10T22:22:48.674Z,25.15
2023-03-10T22:25:17.045Z,25.13
2023-03-10T22:27:46.076Z,25.14
2023-03-10T22:30:15.085Z,25.15
2023-03-10T22:32:43.261Z,25.14
2023-03-10T22:35:12.784Z,25.16
2023-03-10T22:37:41.386Z,25.15
2023-03-10T22:40:13.193Z,25.16
2023-03-10T22:42:41.262Z,25.18
2023-03-10T22:45:16.587Z,25.19
2023-03-10T22:47:44.547Z,25.19
2023-03-10T22:50:16.050Z,25.20
2023-03-10T22:52:44.129Z,25.21
2023-03-10T22:55:15.460Z,25.21
2023-03-10T22:57:43.367Z,25.22
2023-03-10T23:00:15.271Z,25.24
2023-03-10T23:02:43.391Z,25.22
2023-03-10T23:05:13.499Z,25.23
2023-03-10T23:07:41.424Z,25.24
2023-03-10T23:10:11.402Z,25.24
2023-03-10T23:12:40.578Z,25.24
2023-03-10T23:15:15.370Z,25.23
2023-03-10T23:17:50.504Z,25.20
2023-03-10T23:20:20.089Z,25.19
2023-03-10T23:22:48.400Z,25.18
2023-03-10T23:25:18.476Z,25.17
2023-03-10T23:27:46.442Z,25.13
2023-03-10T23:30:15.909Z,25.16
2023-03-10T23:32:45.349Z,25.15
2023-03-10T23:35:14.564Z,25.13
2023-03-10T23:37:43.820Z,25.11
2023-03-10T23:40:15.323Z,25.11
2023-03-10T23:42:43.898Z,25.08
2023-03-10T23:45:14.678Z,25.00
2023-03-10T23:47:44.235Z,25.08
2023-03-10T23:50:17.852Z,25.10
2023-03-10T23:52:47.638Z,25.08
2023-03-10T23:55:17.090Z,25.08
2023-03-10T23:57:45.232Z,25.07
